sensor_id;sensor_type;location;lat;lon;timestamp;P1;durP1;ratioP1;P2;durP2;ratioP2
32172;SDS011;18679;45.190;5.722;2023-09-12T00:01:43;6.07;;;3.67;;
32172;SDS011;18679;45.190;5.722;2023-09-12T00:04:44;5.50;;;3.85;;
32172;SDS011;18679;45.190;5.722;2023-09-12T00:07:45;8.20;;;3.63;;
32172;SDS011;18679;45.190;5.722;2023-09-12T00:10:46;5.95;;;4.13;;
32172;SDS011;18679;45.190;5.722;2023-09-12T00:13:47;11.95;;;4.03;;
32172;SDS011;18679;45.190;5.722;2023-09-12T00:16:48;6.57;;;4.03;;
32172;SDS011;18679;45.190;5.722;2023-09-12T00:19:48;8.70;;;4.03;;
32172;SDS011;18679;45.190;5.722;2023-09-12T00:22:49;5.32;;;3.75;;
32172;SDS011;18679;45.190;5.722;2023-09-12T00:25:50;6.18;;;3.90;;
32172;SDS011;18679;45.190;5.722;2023-09-12T00:28:52;6.47;;;3.75;;
32172;SDS011;18679;45.190;5.722;2023-09-12T00:31:52;4.90;;;3.83;;
32172;SDS011;18679;45.190;5.722;2023-09-12T00:34:54;5.60;;;4.07;;
32172;SDS011;18679;45.190;5.722;2023-09-12T00:37:54;13.30;;;3.92;;
32172;SDS011;18679;45.190;5.722;2023-09-12T00:40:55;6.15;;;3.90;;
32172;SDS011;18679;45.190;5.722;2023-09-12T00:43:56;15.10;;;4.07;;
32172;SDS011;18679;45.190;5.722;2023-09-12T00:46:58;6.43;;;4.22;;
32172;SDS011;18679;45.190;5.722;2023-09-12T00:50:02;8.45;;;4.18;;
32172;SDS011;18679;45.190;5.722;2023-09-12T00:53:05;6.93;;;3.92;;
32172;SDS011;18679;45.190;5.722;2023-09-12T00:56:07;6.00;;;3.88;;
32172;SDS011;18679;45.190;5.722;2023-09-12T00:59:08;7.55;;;3.78;;
32172;SDS011;18679;45.190;5.722;2023-09-12T01:02:11;7.78;;;4.30;;
32172;SDS011;18679;45.190;5.722;2023-09-12T01:05:15;7.18;;;4.00;;
32172;SDS011;18679;45.190;5.722;2023-09-12T01:08:17;6.95;;;4.40;;
32172;SDS011;18679;45.190;5.722;2023-09-12T01:11:18;7.65;;;4.18;;
32172;SDS011;18679;45.190;5.722;2023-09-12T01:14:20;9.70;;;4.85;;
32172;SDS011;18679;45.190;5.722;2023-09-12T01:17:21;7.05;;;4.20;;
32172;SDS011;18679;45.190;5.722;2023-09-12T01:20:24;8.55;;;4.45;;
32172;SDS011;18679;45.190;5.722;2023-09-12T01:26:55;11.65;;;4.53;;
32172;SDS011;18679;45.190;5.722;2023-09-12T01:30:10;8.15;;;4.70;;
32172;SDS011;18679;45.190;5.722;2023-09-12T01:33:12;10.05;;;4.97;;
32172;SDS011;18679;45.190;5.722;2023-09-12T01:36:13;12.85;;;4.90;;
32172;SDS011;18679;45.190;5.722;2023-09-12T01:39:14;8.80;;;4.68;;
32172;SDS011;18679;45.190;5.722;2023-09-12T01:42:15;9.80;;;4.50;;
32172;SDS011;18679;45.190;5.722;2023-09-12T01:45:20;10.27;;;4.55;;
32172;SDS011;18679;45.190;5.722;2023-09-12T01:48:25;11.45;;;4.32;;
32172;SDS011;18679;45.190;5.722;2023-09-12T01:51:33;6.78;;;4.25;;
32172;SDS011;18679;45.190;5.722;2023-09-12T01:54:35;13.50;;;4.95;;
32172;SDS011;18679;45.190;5.722;2023-09-12T01:57:37;12.88;;;4.10;;
32172;SDS011;18679;45.190;5.722;2023-09-12T02:00:39;9.00;;;4.82;;
32172;SDS011;18679;45.190;5.722;2023-09-12T02:03:40;8.32;;;4.53;;
32172;SDS011;18679;45.190;5.722;2023-09-12T02:06:41;10.80;;;4.35;;
32172;SDS011;18679;45.190;5.722;2023-09-12T02:09:42;13.75;;;5.07;;
32172;SDS011;18679;45.190;5.722;2023-09-12T02:12:43;6.63;;;4.30;;
32172;SDS011;18679;45.190;5.722;2023-09-12T02:15:44;7.18;;;4.55;;
32172;SDS011;18679;45.190;5.722;2023-09-12T02:18:45;7.35;;;4.32;;
32172;SDS011;18679;45.190;5.722;2023-09-12T02:21:46;10.02;;;4.38;;
32172;SDS011;18679;45.190;5.722;2023-09-12T02:24:46;7.72;;;4.57;;
32172;SDS011;18679;45.190;5.722;2023-09-12T02:27:47;12.68;;;4.20;;
32172;SDS011;18679;45.190;5.722;2023-09-12T02:30:48;7.72;;;4.63;;
32172;SDS011;18679;45.190;5.722;2023-09-12T02:33:49;6.28;;;4.38;;
32172;SDS011;18679;45.190;5.722;2023-09-12T02:36:51;9.43;;;5.47;;
32172;SDS011;18679;45.190;5.722;2023-09-12T02:39:52;7.75;;;4.30;;
32172;SDS011;18679;45.190;5.722;2023-09-12T02:42:53;12.00;;;4.32;;
32172;SDS011;18679;45.190;5.722;2023-09-12T02:45:54;7.10;;;4.85;;
32172;SDS011;18679;45.190;5.722;2023-09-12T02:48:55;7.00;;;4.82;;
32172;SDS011;18679;45.190;5.722;2023-09-12T02:51:56;7.78;;;4.60;;
32172;SDS011;18679;45.190;5.722;2023-09-12T02:54:56;6.15;;;4.30;;
32172;SDS011;18679;45.190;5.722;2023-09-12T02:57:57;8.32;;;4.80;;
32172;SDS011;18679;45.190;5.722;2023-09-12T03:00:58;6.65;;;4.25;;
32172;SDS011;18679;45.190;5.722;2023-09-12T03:03:59;6.97;;;4.60;;
32172;SDS011;18679;45.190;5.722;2023-09-12T03:07:00;7.93;;;4.60;;
32172;SDS011;18679;45.190;5.722;2023-09-12T03:10:01;10.20;;;4.55;;
32172;SDS011;18679;45.190;5.722;2023-09-12T03:13:03;8.20;;;4.90;;
32172;SDS011;18679;45.190;5.722;2023-09-12T03:16:04;5.72;;;4.28;;
32172;SDS011;18679;45.190;5.722;2023-09-12T03:19:05;9.23;;;4.85;;
32172;SDS011;18679;45.190;5.722;2023-09-12T03:22:06;6.90;;;4.20;;
32172;SDS011;18679;45.190;5.722;2023-09-12T03:25:07;11.80;;;4.53;;
32172;SDS011;18679;45.190;5.722;2023-09-12T03:28:08;9.48;;;4.53;;
32172;SDS011;18679;45.190;5.722;2023-09-12T03:31:10;7.63;;;5.05;;
32172;SDS011;18679;45.190;5.722;2023-09-12T03:34:13;9.00;;;4.57;;
32172;SDS011;18679;45.190;5.722;2023-09-12T03:37:14;8.85;;;4.63;;
32172;SDS011;18679;45.190;5.722;2023-09-12T03:40:15;11.32;;;4.60;;
32172;SDS011;18679;45.190;5.722;2023-09-12T03:43:16;9.98;;;4.40;;
32172;SDS011;18679;45.190;5.722;2023-09-12T03:46:16;6.65;;;4.13;;
32172;SDS011;18679;45.190;5.722;2023-09-12T03:49:17;16.63;;;4.55;;
32172;SDS011;18679;45.190;5.722;2023-09-12T03:52:18;8.38;;;4.53;;
32172;SDS011;18679;45.190;5.722;2023-09-12T03:55:19;6.63;;;4.00;;
32172;SDS011;18679;45.190;5.722;2023-09-12T03:58:20;7.65;;;4.05;;
32172;SDS011;18679;45.190;5.722;2023-09-12T04:01:22;6.97;;;3.85;;
32172;SDS011;18679;45.190;5.722;2023-09-12T04:04:22;7.40;;;4.22;;
32172;SDS011;18679;45.190;5.722;2023-09-12T04:07:23;7.32;;;4.07;;
32172;SDS011;18679;45.190;5.722;2023-09-12T04:10:24;7.35;;;4.25;;
32172;SDS011;18679;45.190;5.722;2023-09-12T04:13:25;17.90;;;4.43;;
32172;SDS011;18679;45.190;5.722;2023-09-12T04:16:26;5.57;;;3.58;;
32172;SDS011;18679;45.190;5.722;2023-09-12T04:19:27;6.72;;;3.97;;
32172;SDS011;18679;45.190;5.722;2023-09-12T04:22:28;6.28;;;3.90;;
32172;SDS011;18679;45.190;5.722;2023-09-12T04:25:29;16.92;;;4.35;;
32172;SDS011;18679;45.190;5.722;2023-09-12T04:28:31;16.35;;;5.00;;
32172;SDS011;18679;45.190;5.722;2023-09-12T04:31:32;7.55;;;4.10;;
32172;SDS011;18679;45.190;5.722;2023-09-12T04:34:33;5.55;;;3.85;;
32172;SDS011;18679;45.190;5.722;2023-09-12T04:37:34;6.32;;;3.85;;
32172;SDS011;18679;45.190;5.722;2023-09-12T04:40:36;6.00;;;3.70;;
32172;SDS011;18679;45.190;5.722;2023-09-12T04:43:39;10.68;;;3.88;;
32172;SDS011;18679;45.190;5.722;2023-09-12T04:46:41;7.90;;;3.67;;
32172;SDS011;18679;45.190;5.722;2023-09-12T04:49:43;5.93;;;4.00;;
32172;SDS011;18679;45.190;5.722;2023-09-12T04:52:45;10.77;;;4.47;;
32172;SDS011;18679;45.190;5.722;2023-09-12T04:55:46;10.35;;;4.50;;
32172;SDS011;18679;45.190;5.722;2023-09-12T04:58:47;8.25;;;4.20;;
32172;SDS011;18679;45.190;5.722;2023-09-12T05:01:48;10.60;;;4.15;;
32172;SDS011;18679;45.190;5.722;2023-09-12T05:04:49;7.82;;;4.40;;
32172;SDS011;18679;45.190;5.722;2023-09-12T05:07:50;10.57;;;4.10;;
32172;SDS011;18679;45.190;5.722;2023-09-12T05:10:54;13.38;;;4.65;;
32172;SDS011;18679;45.190;5.722;2023-09-12T05:13:55;10.63;;;4.32;;
32172;SDS011;18679;45.190;5.722;2023-09-12T05:16:56;8.50;;;4.20;;
32172;SDS011;18679;45.190;5.722;2023-09-12T05:19:56;11.88;;;4.80;;
32172;SDS011;18679;45.190;5.722;2023-09-12T05:22:57;7.15;;;4.22;;
32172;SDS011;18679;45.190;5.722;2023-09-12T05:25:58;8.80;;;4.40;;
32172;SDS011;18679;45.190;5.722;2023-09-12T05:28:59;9.90;;;4.50;;
32172;SDS011;18679;45.190;5.722;2023-09-12T05:32:01;7.40;;;5.10;;
32172;SDS011;18679;45.190;5.722;2023-09-12T05:35:02;7.75;;;4.32;;
32172;SDS011;18679;45.190;5.722;2023-09-12T05:38:03;9.30;;;4.13;;
32172;SDS011;18679;45.190;5.722;2023-09-12T05:41:04;7.07;;;3.75;;
32172;SDS011;18679;45.190;5.722;2023-09-12T05:44:05;9.52;;;4.47;;
32172;SDS011;18679;45.190;5.722;2023-09-12T05:47:06;9.00;;;4.63;;
32172;SDS011;18679;45.190;5.722;2023-09-12T05:50:07;9.98;;;4.25;;
32172;SDS011;18679;45.190;5.722;2023-09-12T05:53:08;8.13;;;4.10;;
32172;SDS011;18679;45.190;5.722;2023-09-12T05:56:09;14.02;;;5.10;;
32172;SDS011;18679;45.190;5.722;2023-09-12T05:59:11;12.10;;;5.15;;
32172;SDS011;18679;45.190;5.722;2023-09-12T06:02:12;8.35;;;4.43;;
32172;SDS011;18679;45.190;5.722;2023-09-12T06:05:13;9.82;;;4.28;;
32172;SDS011;18679;45.190;5.722;2023-09-12T06:08:14;9.10;;;4.78;;
32172;SDS011;18679;45.190;5.722;2023-09-12T06:11:15;10.13;;;4.40;;
32172;SDS011;18679;45.190;5.722;2023-09-12T06:14:16;11.10;;;5.22;;
32172;SDS011;18679;45.190;5.722;2023-09-12T06:17:17;8.88;;;4.82;;
32172;SDS011;18679;45.190;5.722;2023-09-12T06:20:18;12.70;;;4.63;;
32172;SDS011;18679;45.190;5.722;2023-09-12T06:23:18;19.27;;;5.18;;
32172;SDS011;18679;45.190;5.722;2023-09-12T06:26:19;18.63;;;5.40;;
32172;SDS011;18679;45.190;5.722;2023-09-12T06:29:20;15.57;;;5.40;;
32172;SDS011;18679;45.190;5.722;2023-09-12T06:32:21;7.05;;;4.63;;
32172;SDS011;18679;45.190;5.722;2023-09-12T06:35:22;17.13;;;5.15;;
32172;SDS011;18679;45.190;5.722;2023-09-12T06:38:23;17.77;;;5.15;;
32172;SDS011;18679;45.190;5.722;2023-09-12T06:41:24;10.32;;;4.97;;
32172;SDS011;18679;45.190;5.722;2023-09-12T06:44:26;14.10;;;5.25;;
32172;SDS011;18679;45.190;5.722;2023-09-12T06:47:28;17.65;;;5.63;;
32172;SDS011;18679;45.190;5.722;2023-09-12T06:50:28;10.25;;;4.90;;
32172;SDS011;18679;45.190;5.722;2023-09-12T06:53:29;7.25;;;5.00;;
32172;SDS011;18679;45.190;5.722;2023-09-12T06:56:30;9.25;;;4.90;;
32172;SDS011;18679;45.190;5.722;2023-09-12T06:59:31;16.00;;;4.88;;
32172;SDS011;18679;45.190;5.722;2023-09-12T07:02:32;11.95;;;4.80;;
32172;SDS011;18679;45.190;5.722;2023-09-12T07:05:35;13.02;;;5.00;;
32172;SDS011;18679;45.190;5.722;2023-09-12T07:08:36;23.80;;;5.35;;
32172;SDS011;18679;45.190;5.722;2023-09-12T07:11:37;22.58;;;4.53;;
32172;SDS011;18679;45.190;5.722;2023-09-12T07:14:38;5.15;;;3.60;;
32172;SDS011;18679;45.190;5.722;2023-09-12T07:17:39;15.23;;;4.80;;
32172;SDS011;18679;45.190;5.722;2023-09-12T07:20:39;8.00;;;4.25;;
32172;SDS011;18679;45.190;5.722;2023-09-12T07:23:40;13.68;;;3.55;;
32172;SDS011;18679;45.190;5.722;2023-09-12T07:26:41;12.75;;;4.25;;
32172;SDS011;18679;45.190;5.722;2023-09-12T07:29:42;10.27;;;3.50;;
32172;SDS011;18679;45.190;5.722;2023-09-12T07:32:43;10.95;;;3.50;;
32172;SDS011;18679;45.190;5.722;2023-09-12T07:35:44;7.55;;;3.78;;
32172;SDS011;18679;45.190;5.722;2023-09-12T07:38:47;7.43;;;3.60;;
32172;SDS011;18679;45.190;5.722;2023-09-12T07:41:48;5.65;;;3.58;;
32172;SDS011;18679;45.190;5.722;2023-09-12T07:44:49;9.00;;;3.28;;
32172;SDS011;18679;45.190;5.722;2023-09-12T07:47:50;8.73;;;3.53;;
32172;SDS011;18679;45.190;5.722;2023-09-12T07:50:51;10.32;;;3.70;;
32172;SDS011;18679;45.190;5.722;2023-09-12T07:53:52;7.70;;;3.90;;
32172;SDS011;18679;45.190;5.722;2023-09-12T07:56:53;7.85;;;3.58;;
32172;SDS011;18679;45.190;5.722;2023-09-12T07:59:53;7.82;;;3.53;;
32172;SDS011;18679;45.190;5.722;2023-09-12T08:02:54;13.63;;;3.72;;
32172;SDS011;18679;45.190;5.722;2023-09-12T08:05:55;9.40;;;3.80;;
32172;SDS011;18679;45.190;5.722;2023-09-12T08:08:57;14.25;;;3.75;;
32172;SDS011;18679;45.190;5.722;2023-09-12T08:11:58;12.50;;;3.35;;
32172;SDS011;18679;45.190;5.722;2023-09-12T08:14:59;10.32;;;3.75;;
32172;SDS011;18679;45.190;5.722;2023-09-12T08:18:00;8.55;;;3.28;;
32172;SDS011;18679;45.190;5.722;2023-09-12T08:21:01;8.93;;;3.38;;
32172;SDS011;18679;45.190;5.722;2023-09-12T08:24:02;7.90;;;3.45;;
32172;SDS011;18679;45.190;5.722;2023-09-12T08:27:03;12.38;;;3.40;;
32172;SDS011;18679;45.190;5.722;2023-09-12T08:30:04;9.10;;;3.28;;
32172;SDS011;18679;45.190;5.722;2023-09-12T08:33:06;7.65;;;2.65;;
32172;SDS011;18679;45.190;5.722;2023-09-12T08:36:07;9.45;;;2.85;;
32172;SDS011;18679;45.190;5.722;2023-09-12T08:39:11;6.15;;;3.25;;
32172;SDS011;18679;45.190;5.722;2023-09-12T08:42:15;6.72;;;3.35;;
32172;SDS011;18679;45.190;5.722;2023-09-12T08:45:16;7.97;;;3.03;;
32172;SDS011;18679;45.190;5.722;2023-09-12T08:48:18;9.10;;;2.80;;
32172;SDS011;18679;45.190;5.722;2023-09-12T08:51:25;8.27;;;3.17;;
32172;SDS011;18679;45.190;5.722;2023-09-12T08:54:25;13.93;;;3.15;;
32172;SDS011;18679;45.190;5.722;2023-09-12T08:57:26;6.80;;;2.95;;
32172;SDS011;18679;45.190;5.722;2023-09-12T09:00:28;9.45;;;2.67;;
32172;SDS011;18679;45.190;5.722;2023-09-12T09:03:29;5.32;;;3.13;;
32172;SDS011;18679;45.190;5.722;2023-09-12T09:06:31;6.53;;;3.20;;
32172;SDS011;18679;45.190;5.722;2023-09-12T09:09:35;6.68;;;3.20;;
32172;SDS011;18679;45.190;5.722;2023-09-12T09:12:37;6.15;;;2.90;;
32172;SDS011;18679;45.190;5.722;2023-09-12T09:15:40;9.95;;;3.17;;
32172;SDS011;18679;45.190;5.722;2023-09-12T09:21:51;8.88;;;2.97;;
32172;SDS011;18679;45.190;5.722;2023-09-12T09:24:57;8.35;;;3.95;;
32172;SDS011;18679;45.190;5.722;2023-09-12T09:28:18;10.00;;;3.00;;
32172;SDS011;18679;45.190;5.722;2023-09-12T09:31:19;10.52;;;2.63;;
32172;SDS011;18679;45.190;5.722;2023-09-12T09:34:21;16.63;;;3.22;;
32172;SDS011;18679;45.190;5.722;2023-09-12T09:37:27;4.13;;;3.00;;
32172;SDS011;18679;45.190;5.722;2023-09-12T09:40:28;7.43;;;2.95;;
32172;SDS011;18679;45.190;5.722;2023-09-12T09:43:30;4.63;;;3.28;;
32172;SDS011;18679;45.190;5.722;2023-09-12T09:46:32;8.68;;;2.53;;
32172;SDS011;18679;45.190;5.722;2023-09-12T09:49:33;3.15;;;2.42;;
32172;SDS011;18679;45.190;5.722;2023-09-12T09:52:34;16.08;;;2.92;;
32172;SDS011;18679;45.190;5.722;2023-09-12T09:55:35;8.85;;;2.97;;
32172;SDS011;18679;45.190;5.722;2023-09-12T10:02:03;5.50;;;2.42;;
32172;SDS011;18679;45.190;5.722;2023-09-12T10:05:12;13.63;;;2.60;;
32172;SDS011;18679;45.190;5.722;2023-09-12T10:08:14;5.35;;;2.60;;
32172;SDS011;18679;45.190;5.722;2023-09-12T10:11:17;7.93;;;3.10;;
32172;SDS011;18679;45.190;5.722;2023-09-12T10:14:20;4.40;;;2.83;;
32172;SDS011;18679;45.190;5.722;2023-09-12T10:17:24;6.00;;;2.63;;
32172;SDS011;18679;45.190;5.722;2023-09-12T10:20:35;6.55;;;2.60;;
32172;SDS011;18679;45.190;5.722;2023-09-12T10:23:45;4.45;;;2.50;;
32172;SDS011;18679;45.190;5.722;2023-09-12T10:26:51;6.70;;;2.72;;
32172;SDS011;18679;45.190;5.722;2023-09-12T10:29:53;7.13;;;2.40;;
32172;SDS011;18679;45.190;5.722;2023-09-12T10:32:54;6.35;;;2.45;;
32172;SDS011;18679;45.190;5.722;2023-09-12T10:35:56;4.65;;;3.05;;
32172;SDS011;18679;45.190;5.722;2023-09-12T10:38:58;5.47;;;2.70;;
32172;SDS011;18679;45.190;5.722;2023-09-12T10:42:00;4.93;;;2.47;;
32172;SDS011;18679;45.190;5.722;2023-09-12T10:45:05;3.75;;;2.60;;
32172;SDS011;18679;45.190;5.722;2023-09-12T10:48:09;3.47;;;2.53;;
32172;SDS011;18679;45.190;5.722;2023-09-12T10:51:11;6.50;;;2.17;;
32172;SDS011;18679;45.190;5.722;2023-09-12T10:54:23;8.70;;;3.10;;
32172;SDS011;18679;45.190;5.722;2023-09-12T10:57:25;3.60;;;2.63;;
32172;SDS011;18679;45.190;5.722;2023-09-12T11:00:28;3.03;;;2.40;;
32172;SDS011;18679;45.190;5.722;2023-09-12T11:06:30;4.97;;;2.47;;
32172;SDS011;18679;45.190;5.722;2023-09-12T11:09:31;5.47;;;2.50;;
32172;SDS011;18679;45.190;5.722;2023-09-12T11:12:35;3.83;;;2.90;;
32172;SDS011;18679;45.190;5.722;2023-09-12T11:15:36;6.72;;;3.45;;
32172;SDS011;18679;45.190;5.722;2023-09-12T11:25:25;4.28;;;2.75;;
32172;SDS011;18679;45.190;5.722;2023-09-12T11:28:28;3.88;;;2.83;;
32172;SDS011;18679;45.190;5.722;2023-09-12T11:31:29;3.88;;;2.72;;
32172;SDS011;18679;45.190;5.722;2023-09-12T11:34:37;4.25;;;2.42;;
32172;SDS011;18679;45.190;5.722;2023-09-12T11:37:48;5.75;;;2.55;;
32172;SDS011;18679;45.190;5.722;2023-09-12T11:40:50;6.97;;;2.90;;
32172;SDS011;18679;45.190;5.722;2023-09-12T11:43:51;5.80;;;2.55;;
32172;SDS011;18679;45.190;5.722;2023-09-12T11:46:52;6.90;;;2.70;;
32172;SDS011;18679;45.190;5.722;2023-09-12T11:49:54;4.57;;;2.95;;
32172;SDS011;18679;45.190;5.722;2023-09-12T11:53:01;4.53;;;3.13;;
32172;SDS011;18679;45.190;5.722;2023-09-12T11:56:06;4.95;;;3.60;;
32172;SDS011;18679;45.190;5.722;2023-09-12T11:59:07;4.72;;;3.13;;
32172;SDS011;18679;45.190;5.722;2023-09-12T12:02:08;10.13;;;4.70;;
32172;SDS011;18679;45.190;5.722;2023-09-12T12:05:10;3.88;;;3.00;;
32172;SDS011;18679;45.190;5.722;2023-09-12T12:08:11;7.15;;;2.63;;
32172;SDS011;18679;45.190;5.722;2023-09-12T12:11:12;5.53;;;2.85;;
32172;SDS011;18679;45.190;5.722;2023-09-12T12:14:13;6.13;;;2.80;;
32172;SDS011;18679;45.190;5.722;2023-09-12T12:17:16;6.55;;;2.70;;
32172;SDS011;18679;45.190;5.722;2023-09-12T12:20:17;4.55;;;2.45;;
32172;SDS011;18679;45.190;5.722;2023-09-12T12:23:17;6.15;;;2.65;;
32172;SDS011;18679;45.190;5.722;2023-09-12T12:26:18;5.75;;;3.80;;
32172;SDS011;18679;45.190;5.722;2023-09-12T12:29:19;4.57;;;2.65;;
32172;SDS011;18679;45.190;5.722;2023-09-12T12:32:22;5.20;;;2.95;;
32172;SDS011;18679;45.190;5.722;2023-09-12T12:35:23;8.77;;;2.80;;
32172;SDS011;18679;45.190;5.722;2023-09-12T12:38:24;3.45;;;2.78;;
32172;SDS011;18679;45.190;5.722;2023-09-12T12:41:26;3.95;;;2.95;;
32172;SDS011;18679;45.190;5.722;2023-09-12T12:44:34;3.30;;;2.80;;
32172;SDS011;18679;45.190;5.722;2023-09-12T12:47:41;3.17;;;2.65;;
32172;SDS011;18679;45.190;5.722;2023-09-12T12:50:42;4.65;;;2.60;;
32172;SDS011;18679;45.190;5.722;2023-09-12T12:53:47;5.25;;;3.00;;
32172;SDS011;18679;45.190;5.722;2023-09-12T12:57:03;4.30;;;3.17;;
32172;SDS011;18679;45.190;5.722;2023-09-12T13:00:11;3.78;;;2.67;;
32172;SDS011;18679;45.190;5.722;2023-09-12T13:03:14;13.27;;;2.90;;
32172;SDS011;18679;45.190;5.722;2023-09-12T13:06:15;9.80;;;2.95;;
32172;SDS011;18679;45.190;5.722;2023-09-12T13:09:18;3.72;;;2.67;;
32172;SDS011;18679;45.190;5.722;2023-09-12T13:12:20;11.43;;;3.40;;
32172;SDS011;18679;45.190;5.722;2023-09-12T13:15:20;5.18;;;3.30;;
32172;SDS011;18679;45.190;5.722;2023-09-12T13:18:21;4.45;;;3.03;;
32172;SDS011;18679;45.190;5.722;2023-09-12T13:21:22;4.70;;;3.08;;
32172;SDS011;18679;45.190;5.722;2023-09-12T13:24:23;5.00;;;2.88;;
32172;SDS011;18679;45.190;5.722;2023-09-12T13:27:24;4.60;;;2.90;;
32172;SDS011;18679;45.190;5.722;2023-09-12T13:30:24;6.05;;;3.13;;
32172;SDS011;18679;45.190;5.722;2023-09-12T13:33:25;9.55;;;3.67;;
32172;SDS011;18679;45.190;5.722;2023-09-12T13:36:26;8.15;;;2.95;;
32172;SDS011;18679;45.190;5.722;2023-09-12T13:39:27;5.00;;;2.78;;
32172;SDS011;18679;45.190;5.722;2023-09-12T13:42:28;12.07;;;3.20;;
32172;SDS011;18679;45.190;5.722;2023-09-12T13:45:31;4.82;;;3.13;;
32172;SDS011;18679;45.190;5.722;2023-09-12T13:48:33;5.10;;;3.60;;
32172;SDS011;18679;45.190;5.722;2023-09-12T13:51:34;6.55;;;3.08;;
32172;SDS011;18679;45.190;5.722;2023-09-12T13:54:36;8.18;;;3.20;;
32172;SDS011;18679;45.190;5.722;2023-09-12T13:57:37;6.40;;;2.80;;
32172;SDS011;18679;45.190;5.722;2023-09-12T14:00:38;5.25;;;3.17;;
32172;SDS011;18679;45.190;5.722;2023-09-12T14:03:38;3.42;;;2.47;;
32172;SDS011;18679;45.190;5.722;2023-09-12T14:06:39;3.63;;;2.85;;
32172;SDS011;18679;45.190;5.722;2023-09-12T14:09:40;7.20;;;2.90;;
32172;SDS011;18679;45.190;5.722;2023-09-12T14:12:41;5.00;;;2.90;;
32172;SDS011;18679;45.190;5.722;2023-09-12T14:15:42;5.32;;;2.92;;
32172;SDS011;18679;45.190;5.722;2023-09-12T14:18:43;5.50;;;3.40;;
32172;SDS011;18679;45.190;5.722;2023-09-12T14:21:43;16.52;;;3.55;;
32172;SDS011;18679;45.190;5.722;2023-09-12T14:24:44;9.40;;;2.90;;
32172;SDS011;18679;45.190;5.722;2023-09-12T14:27:45;6.28;;;3.15;;
32172;SDS011;18679;45.190;5.722;2023-09-12T14:30:46;4.38;;;3.13;;
32172;SDS011;18679;45.190;5.722;2023-09-12T14:33:49;16.05;;;3.05;;
32172;SDS011;18679;45.190;5.722;2023-09-12T14:36:50;7.95;;;3.40;;
32172;SDS011;18679;45.190;5.722;2023-09-12T14:39:51;4.68;;;2.55;;
32172;SDS011;18679;45.190;5.722;2023-09-12T14:42:52;6.78;;;3.10;;
32172;SDS011;18679;45.190;5.722;2023-09-12T14:45:56;11.48;;;3.17;;
32172;SDS011;18679;45.190;5.722;2023-09-12T14:48:57;12.55;;;3.08;;
32172;SDS011;18679;45.190;5.722;2023-09-12T14:51:58;15.52;;;3.47;;
32172;SDS011;18679;45.190;5.722;2023-09-12T14:54:59;4.88;;;3.42;;
32172;SDS011;18679;45.190;5.722;2023-09-12T14:58:00;9.32;;;3.40;;
32172;SDS011;18679;45.190;5.722;2023-09-12T15:01:01;5.00;;;2.97;;
32172;SDS011;18679;45.190;5.722;2023-09-12T15:04:02;6.45;;;3.00;;
32172;SDS011;18679;45.190;5.722;2023-09-12T15:07:03;5.82;;;3.47;;
32172;SDS011;18679;45.190;5.722;2023-09-12T15:10:04;5.35;;;3.38;;
32172;SDS011;18679;45.190;5.722;2023-09-12T15:13:05;4.20;;;3.13;;
32172;SDS011;18679;45.190;5.722;2023-09-12T15:16:06;4.60;;;3.05;;
32172;SDS011;18679;45.190;5.722;2023-09-12T15:19:07;8.88;;;3.38;;
32172;SDS011;18679;45.190;5.722;2023-09-12T15:22:08;12.00;;;3.20;;
32172;SDS011;18679;45.190;5.722;2023-09-12T15:25:09;7.03;;;3.25;;
32172;SDS011;18679;45.190;5.722;2023-09-12T15:28:10;5.32;;;3.38;;
32172;SDS011;18679;45.190;5.722;2023-09-12T15:31:11;5.63;;;3.33;;
32172;SDS011;18679;45.190;5.722;2023-09-12T15:34:14;5.47;;;3.92;;
32172;SDS011;18679;45.190;5.722;2023-09-12T15:37:15;4.72;;;3.33;;
32172;SDS011;18679;45.190;5.722;2023-09-12T15:40:16;8.65;;;4.15;;
32172;SDS011;18679;45.190;5.722;2023-09-12T15:43:17;6.60;;;3.63;;
32172;SDS011;18679;45.190;5.722;2023-09-12T15:46:18;5.55;;;3.42;;
32172;SDS011;18679;45.190;5.722;2023-09-12T15:49:19;10.68;;;3.70;;
32172;SDS011;18679;45.190;5.722;2023-09-12T15:52:20;7.90;;;3.83;;
32172;SDS011;18679;45.190;5.722;2023-09-12T15:55:21;6.10;;;3.38;;
32172;SDS011;18679;45.190;5.722;2023-09-12T15:58:22;5.15;;;3.25;;
32172;SDS011;18679;45.190;5.722;2023-09-12T16:01:23;8.98;;;3.80;;
32172;SDS011;18679;45.190;5.722;2023-09-12T16:04:24;13.05;;;3.58;;
32172;SDS011;18679;45.190;5.722;2023-09-12T16:07:26;5.00;;;3.40;;
32172;SDS011;18679;45.190;5.722;2023-09-12T16:10:27;8.57;;;4.10;;
32172;SDS011;18679;45.190;5.722;2023-09-12T16:13:28;11.25;;;3.85;;
32172;SDS011;18679;45.190;5.722;2023-09-12T16:16:29;7.03;;;4.03;;
32172;SDS011;18679;45.190;5.722;2023-09-12T16:19:30;6.22;;;4.20;;
32172;SDS011;18679;45.190;5.722;2023-09-12T16:22:31;7.05;;;3.47;;
32172;SDS011;18679;45.190;5.722;2023-09-12T16:25:31;5.70;;;3.75;;
32172;SDS011;18679;45.190;5.722;2023-09-12T16:28:32;5.07;;;3.42;;
32172;SDS011;18679;45.190;5.722;2023-09-12T16:31:33;10.18;;;3.47;;
32172;SDS011;18679;45.190;5.722;2023-09-12T16:34:34;5.63;;;3.60;;
32172;SDS011;18679;45.190;5.722;2023-09-12T16:37:35;10.80;;;3.92;;
32172;SDS011;18679;45.190;5.722;2023-09-12T16:40:36;6.03;;;3.90;;
32172;SDS011;18679;45.190;5.722;2023-09-12T16:43:39;6.18;;;3.75;;
32172;SDS011;18679;45.190;5.722;2023-09-12T16:46:41;9.98;;;3.55;;
32172;SDS011;18679;45.190;5.722;2023-09-12T16:54:12;9.70;;;3.80;;
32172;SDS011;18679;45.190;5.722;2023-09-12T16:57:13;6.32;;;3.47;;
32172;SDS011;18679;45.190;5.722;2023-09-12T17:00:15;6.72;;;3.35;;
32172;SDS011;18679;45.190;5.722;2023-09-12T17:06:43;8.07;;;3.90;;
32172;SDS011;18679;45.190;5.722;2023-09-12T17:09:43;6.03;;;4.32;;
32172;SDS011;18679;45.190;5.722;2023-09-12T17:12:44;7.93;;;3.58;;
32172;SDS011;18679;45.190;5.722;2023-09-12T17:15:45;9.20;;;4.18;;
32172;SDS011;18679;45.190;5.722;2023-09-12T17:18:46;7.90;;;4.13;;
32172;SDS011;18679;45.190;5.722;2023-09-12T17:21:46;4.43;;;3.35;;
32172;SDS011;18679;45.190;5.722;2023-09-12T17:24:47;5.32;;;3.80;;
32172;SDS011;18679;45.190;5.722;2023-09-12T17:27:48;4.43;;;3.03;;
32172;SDS011;18679;45.190;5.722;2023-09-12T17:30:49;10.30;;;4.10;;
32172;SDS011;18679;45.190;5.722;2023-09-12T17:33:50;8.00;;;4.00;;
32172;SDS011;18679;45.190;5.722;2023-09-12T17:36:51;14.23;;;4.70;;
32172;SDS011;18679;45.190;5.722;2023-09-12T17:39:52;6.57;;;3.75;;
32172;SDS011;18679;45.190;5.722;2023-09-12T17:42:53;6.00;;;3.88;;
32172;SDS011;18679;45.190;5.722;2023-09-12T17:45:54;9.15;;;3.78;;
32172;SDS011;18679;45.190;5.722;2023-09-12T17:48:54;7.65;;;3.83;;
32172;SDS011;18679;45.190;5.722;2023-09-12T17:51:55;6.90;;;4.07;;
32172;SDS011;18679;45.190;5.722;2023-09-12T17:54:56;11.80;;;4.15;;
32172;SDS011;18679;45.190;5.722;2023-09-12T17:57:57;10.05;;;4.55;;
32172;SDS011;18679;45.190;5.722;2023-09-12T18:00:59;7.50;;;4.28;;
32172;SDS011;18679;45.190;5.722;2023-09-12T18:04:01;9.05;;;3.90;;
32172;SDS011;18679;45.190;5.722;2023-09-12T18:07:03;8.13;;;3.88;;
32172;SDS011;18679;45.190;5.722;2023-09-12T18:10:04;9.45;;;4.05;;
32172;SDS011;18679;45.190;5.722;2023-09-12T18:13:07;7.60;;;3.60;;
32172;SDS011;18679;45.190;5.722;2023-09-12T18:16:07;9.45;;;4.38;;
32172;SDS011;18679;45.190;5.722;2023-09-12T18:19:08;11.93;;;4.20;;
32172;SDS011;18679;45.190;5.722;2023-09-12T18:22:09;14.60;;;4.38;;
32172;SDS011;18679;45.190;5.722;2023-09-12T18:25:10;9.88;;;3.85;;
32172;SDS011;18679;45.190;5.722;2023-09-12T18:28:11;7.40;;;4.13;;
32172;SDS011;18679;45.190;5.722;2023-09-12T18:31:13;12.13;;;4.40;;
32172;SDS011;18679;45.190;5.722;2023-09-12T18:34:14;13.52;;;4.10;;
32172;SDS011;18679;45.190;5.722;2023-09-12T18:37:16;8.13;;;4.63;;
32172;SDS011;18679;45.190;5.722;2023-09-12T18:40:17;13.98;;;4.60;;